Terminal Aerodrome Forecast
Issued by NWS Cleveland, OH

Home | Current Version | Previous Version | Graphics & Text | Print | Product List | Glossary On
Versions: 1 2 3 4 5 6 7 8 9 10 11 12 13 14 15 16 17 18 19 20 21 22 23
115
FTUS41 KCLE 021134
TAFERI
TAF
KERI 021134Z 0212/0312 24012G20KT 5SM -SHRA OVC015
     FM022000 27015G25KT P6SM VCSH OVC025
     FM030300 30012G20KT P6SM OVC012=

USA.gov is the U.S. government's official web portal to all federal, state and local government web resources and services.